sensor_id;sensor_type;location;lat;lon;timestamp;P1;durP1;ratioP1;P2;durP2;ratioP2
67132;SDS011;54052;53.542;49.408;2022-11-15T00:00:44;1.17;;;0.40;;
67132;SDS011;54052;53.542;49.408;2022-11-15T00:03:10;1.65;;;0.47;;
67132;SDS011;54052;53.542;49.408;2022-11-15T00:05:39;1.58;;;0.22;;
67132;SDS011;54052;53.542;49.408;2022-11-15T00:08:05;0.68;;;0.20;;
67132;SDS011;54052;53.542;49.408;2022-11-15T00:10:31;1.73;;;0.50;;
67132;SDS011;54052;53.542;49.408;2022-11-15T00:12:57;1.35;;;0.30;;
67132;SDS011;54052;53.542;49.408;2022-11-15T00:15:26;2.63;;;0.40;;
67132;SDS011;54052;53.542;49.408;2022-11-15T00:17:52;1.70;;;0.40;;
67132;SDS011;54052;53.542;49.408;2022-11-15T00:20:18;8.82;;;0.50;;
67132;SDS011;54052;53.542;49.408;2022-11-15T00:22:50;5.22;;;0.40;;
67132;SDS011;54052;53.542;49.408;2022-11-15T00:25:17;4.93;;;0.50;;
67132;SDS011;54052;53.542;49.408;2022-11-15T00:27:43;4.15;;;0.50;;
67132;SDS011;54052;53.542;49.408;2022-11-15T00:30:10;0.90;;;0.30;;
67132;SDS011;54052;53.542;49.408;2022-11-15T00:32:37;1.67;;;0.30;;
67132;SDS011;54052;53.542;49.408;2022-11-15T00:35:04;2.92;;;0.45;;
67132;SDS011;54052;53.542;49.408;2022-11-15T00:37:30;0.88;;;0.32;;
67132;SDS011;54052;53.542;49.408;2022-11-15T00:39:56;1.60;;;0.40;;
67132;SDS011;54052;53.542;49.408;2022-11-15T00:42:22;1.13;;;0.55;;
67132;SDS011;54052;53.542;49.408;2022-11-15T00:44:48;2.28;;;0.47;;
67132;SDS011;54052;53.542;49.408;2022-11-15T00:47:14;1.42;;;0.40;;
67132;SDS011;54052;53.542;49.408;2022-11-15T00:49:40;2.58;;;0.45;;
67132;SDS011;54052;53.542;49.408;2022-11-15T00:52:07;0.82;;;0.30;;
67132;SDS011;54052;53.542;49.408;2022-11-15T00:54:33;2.88;;;0.55;;
67132;SDS011;54052;53.542;49.408;2022-11-15T00:56:59;0.75;;;0.30;;
67132;SDS011;54052;53.542;49.408;2022-11-15T00:59:25;1.40;;;0.38;;
67132;SDS011;54052;53.542;49.408;2022-11-15T01:01:51;1.42;;;0.50;;
67132;SDS011;54052;53.542;49.408;2022-11-15T01:04:17;3.88;;;0.45;;
67132;SDS011;54052;53.542;49.408;2022-11-15T01:06:43;1.70;;;0.40;;
67132;SDS011;54052;53.542;49.408;2022-11-15T01:09:09;6.50;;;0.60;;
67132;SDS011;54052;53.542;49.408;2022-11-15T01:11:35;2.90;;;0.60;;
67132;SDS011;54052;53.542;49.408;2022-11-15T01:14:02;8.30;;;0.60;;
67132;SDS011;54052;53.542;49.408;2022-11-15T01:16:29;1.13;;;0.47;;
67132;SDS011;54052;53.542;49.408;2022-11-15T01:18:55;2.47;;;0.50;;
67132;SDS011;54052;53.542;49.408;2022-11-15T01:21:21;1.42;;;0.40;;
67132;SDS011;54052;53.542;49.408;2022-11-15T01:23:47;1.52;;;0.50;;
67132;SDS011;54052;53.542;49.408;2022-11-15T01:26:14;1.65;;;0.40;;
67132;SDS011;54052;53.542;49.408;2022-11-15T01:28:41;1.63;;;0.50;;
67132;SDS011;54052;53.542;49.408;2022-11-15T01:31:15;1.67;;;0.40;;
67132;SDS011;54052;53.542;49.408;2022-11-15T01:33:45;1.17;;;0.40;;
67132;SDS011;54052;53.542;49.408;2022-11-15T01:36:19;1.05;;;0.43;;
67132;SDS011;54052;53.542;49.408;2022-11-15T01:38:53;5.75;;;0.65;;
67132;SDS011;54052;53.542;49.408;2022-11-15T01:41:21;3.17;;;0.50;;
67132;SDS011;54052;53.542;49.408;2022-11-15T01:43:51;6.97;;;0.55;;
67132;SDS011;54052;53.542;49.408;2022-11-15T01:46:23;1.63;;;0.50;;
67132;SDS011;54052;53.542;49.408;2022-11-15T01:48:51;2.67;;;0.40;;
67132;SDS011;54052;53.542;49.408;2022-11-15T01:51:20;35.33;;;1.10;;
67132;SDS011;54052;53.542;49.408;2022-11-15T01:53:50;2.10;;;0.50;;
67132;SDS011;54052;53.542;49.408;2022-11-15T01:56:21;2.85;;;0.70;;
67132;SDS011;54052;53.542;49.408;2022-11-15T01:58:51;1.65;;;0.40;;
67132;SDS011;54052;53.542;49.408;2022-11-15T02:01:20;1.83;;;0.50;;
67132;SDS011;54052;53.542;49.408;2022-11-15T02:03:58;3.33;;;0.70;;
67132;SDS011;54052;53.542;49.408;2022-11-15T02:06:45;6.18;;;0.70;;
67132;SDS011;54052;53.542;49.408;2022-11-15T02:09:13;22.35;;;0.98;;
67132;SDS011;54052;53.542;49.408;2022-11-15T02:11:40;2.67;;;0.50;;
67132;SDS011;54052;53.542;49.408;2022-11-15T02:14:07;4.75;;;0.82;;
67132;SDS011;54052;53.542;49.408;2022-11-15T02:24:48;11.93;;;0.85;;
67132;SDS011;54052;53.542;49.408;2022-11-15T02:36:02;2.20;;;0.68;;
67132;SDS011;54052;53.542;49.408;2022-11-15T02:38:54;3.35;;;0.77;;
67132;SDS011;54052;53.542;49.408;2022-11-15T02:41:39;6.00;;;0.50;;
67132;SDS011;54052;53.542;49.408;2022-11-15T02:44:26;2.40;;;0.68;;
67132;SDS011;54052;53.542;49.408;2022-11-15T02:47:03;3.70;;;0.60;;
67132;SDS011;54052;53.542;49.408;2022-11-15T02:49:41;3.90;;;0.60;;
67132;SDS011;54052;53.542;49.408;2022-11-15T02:52:18;2.85;;;0.50;;
67132;SDS011;54052;53.542;49.408;2022-11-15T02:54:55;2.95;;;0.40;;
67132;SDS011;54052;53.542;49.408;2022-11-15T03:00:20;5.50;;;0.50;;
67132;SDS011;54052;53.542;49.408;2022-11-15T03:03:10;2.40;;;0.60;;
67132;SDS011;54052;53.542;49.408;2022-11-15T03:11:15;4.90;;;0.68;;
67132;SDS011;54052;53.542;49.408;2022-11-15T03:14:27;6.50;;;0.90;;
67132;SDS011;54052;53.542;49.408;2022-11-15T03:19:33;13.32;;;0.60;;
67132;SDS011;54052;53.542;49.408;2022-11-15T03:22:19;2.67;;;0.50;;
67132;SDS011;54052;53.542;49.408;2022-11-15T03:24:52;3.92;;;0.60;;
67132;SDS011;54052;53.542;49.408;2022-11-15T03:27:21;4.82;;;0.70;;
67132;SDS011;54052;53.542;49.408;2022-11-15T03:30:02;2.58;;;0.50;;
67132;SDS011;54052;53.542;49.408;2022-11-15T03:32:32;37.28;;;1.42;;
67132;SDS011;54052;53.542;49.408;2022-11-15T03:37:30;12.38;;;0.80;;
67132;SDS011;54052;53.542;49.408;2022-11-15T03:40:19;4.07;;;0.60;;
67132;SDS011;54052;53.542;49.408;2022-11-15T03:43:00;7.65;;;0.57;;
67132;SDS011;54052;53.542;49.408;2022-11-15T03:45:49;5.22;;;0.57;;
67132;SDS011;54052;53.542;49.408;2022-11-15T03:48:24;7.35;;;0.70;;
67132;SDS011;54052;53.542;49.408;2022-11-15T03:50:54;4.00;;;0.70;;
67132;SDS011;54052;53.542;49.408;2022-11-15T03:53:21;1.98;;;0.90;;
67132;SDS011;54052;53.542;49.408;2022-11-15T03:55:47;6.15;;;0.68;;
67132;SDS011;54052;53.542;49.408;2022-11-15T03:58:13;5.45;;;1.00;;
67132;SDS011;54052;53.542;49.408;2022-11-15T04:00:39;2.58;;;0.32;;
67132;SDS011;54052;53.542;49.408;2022-11-15T04:03:05;1.88;;;0.50;;
67132;SDS011;54052;53.542;49.408;2022-11-15T04:05:32;3.08;;;0.50;;
67132;SDS011;54052;53.542;49.408;2022-11-15T04:07:59;2.78;;;0.40;;
67132;SDS011;54052;53.542;49.408;2022-11-15T04:10:25;2.40;;;0.60;;
67132;SDS011;54052;53.542;49.408;2022-11-15T04:12:51;6.88;;;0.60;;
67132;SDS011;54052;53.542;49.408;2022-11-15T04:15:18;3.40;;;0.75;;
67132;SDS011;54052;53.542;49.408;2022-11-15T04:17:47;12.30;;;1.60;;
67132;SDS011;54052;53.542;49.408;2022-11-15T04:20:18;11.80;;;0.93;;
67132;SDS011;54052;53.542;49.408;2022-11-15T04:23:13;3.30;;;0.70;;
67132;SDS011;54052;53.542;49.408;2022-11-15T04:26:33;3.15;;;0.70;;
67132;SDS011;54052;53.542;49.408;2022-11-15T04:28:52;16.50;;;0.85;;
67132;SDS011;54052;53.542;49.408;2022-11-15T04:31:36;35.20;;;1.42;;
67132;SDS011;54052;53.542;49.408;2022-11-15T04:34:03;7.35;;;0.77;;
67132;SDS011;54052;53.542;49.408;2022-11-15T04:36:29;2.30;;;0.60;;
67132;SDS011;54052;53.542;49.408;2022-11-15T04:39:23;3.60;;;0.73;;
67132;SDS011;54052;53.542;49.408;2022-11-15T04:41:49;6.80;;;0.60;;
67132;SDS011;54052;53.542;49.408;2022-11-15T04:44:15;7.20;;;0.82;;
67132;SDS011;54052;53.542;49.408;2022-11-15T04:46:42;1.85;;;0.50;;
67132;SDS011;54052;53.542;49.408;2022-11-15T04:49:08;3.83;;;0.70;;
67132;SDS011;54052;53.542;49.408;2022-11-15T04:51:35;3.38;;;0.73;;
67132;SDS011;54052;53.542;49.408;2022-11-15T04:54:01;3.88;;;0.70;;
67132;SDS011;54052;53.542;49.408;2022-11-15T04:56:27;5.63;;;0.90;;
67132;SDS011;54052;53.542;49.408;2022-11-15T04:58:53;3.33;;;1.58;;
67132;SDS011;54052;53.542;49.408;2022-11-15T05:01:19;18.00;;;0.95;;
67132;SDS011;54052;53.542;49.408;2022-11-15T05:03:45;22.65;;;1.27;;
67132;SDS011;54052;53.542;49.408;2022-11-15T05:06:30;1.88;;;0.90;;
67132;SDS011;54052;53.542;49.408;2022-11-15T05:08:56;72.80;;;2.47;;
67132;SDS011;54052;53.542;49.408;2022-11-15T05:11:23;4.22;;;0.68;;
67132;SDS011;54052;53.542;49.408;2022-11-15T05:13:49;0.52;;;0.20;;
67132;SDS011;54052;53.542;49.408;2022-11-15T05:16:16;1.42;;;0.20;;
67132;SDS011;54052;53.542;49.408;2022-11-15T05:18:42;0.88;;;0.17;;
67132;SDS011;54052;53.542;49.408;2022-11-15T05:21:12;3.08;;;0.40;;
67132;SDS011;54052;53.542;49.408;2022-11-15T05:23:40;2.00;;;0.20;;
67132;SDS011;54052;53.542;49.408;2022-11-15T05:26:07;1.08;;;0.20;;
67132;SDS011;54052;53.542;49.408;2022-11-15T05:28:34;6.45;;;0.20;;
67132;SDS011;54052;53.542;49.408;2022-11-15T05:31:02;2.70;;;0.30;;
67132;SDS011;54052;53.542;49.408;2022-11-15T05:33:29;4.43;;;0.10;;
67132;SDS011;54052;53.542;49.408;2022-11-15T05:36:02;0.32;;;0.20;;
67132;SDS011;54052;53.542;49.408;2022-11-15T05:38:32;1.20;;;0.28;;
67132;SDS011;54052;53.542;49.408;2022-11-15T05:41:02;2.70;;;1.25;;
67132;SDS011;54052;53.542;49.408;2022-11-15T05:43:29;2.92;;;0.40;;
67132;SDS011;54052;53.542;49.408;2022-11-15T05:46:00;10.18;;;0.50;;
67132;SDS011;54052;53.542;49.408;2022-11-15T05:48:28;1.88;;;0.40;;
67132;SDS011;54052;53.542;49.408;2022-11-15T05:50:54;2.25;;;0.25;;
67132;SDS011;54052;53.542;49.408;2022-11-15T05:53:21;7.53;;;0.30;;
67132;SDS011;54052;53.542;49.408;2022-11-15T05:55:50;0.90;;;0.30;;
67132;SDS011;54052;53.542;49.408;2022-11-15T05:58:17;0.22;;;0.15;;
67132;SDS011;54052;53.542;49.408;2022-11-15T06:00:44;0.73;;;0.25;;
67132;SDS011;54052;53.542;49.408;2022-11-15T06:03:10;4.43;;;0.30;;
67132;SDS011;54052;53.542;49.408;2022-11-15T06:05:36;2.60;;;0.40;;
67132;SDS011;54052;53.542;49.408;2022-11-15T06:08:02;2.17;;;0.30;;
67132;SDS011;54052;53.542;49.408;2022-11-15T06:10:29;2.70;;;0.70;;
67132;SDS011;54052;53.542;49.408;2022-11-15T06:12:58;3.92;;;1.15;;
67132;SDS011;54052;53.542;49.408;2022-11-15T06:15:25;3.70;;;1.52;;
67132;SDS011;54052;53.542;49.408;2022-11-15T06:17:51;4.20;;;0.90;;
67132;SDS011;54052;53.542;49.408;2022-11-15T06:20:17;5.43;;;1.05;;
67132;SDS011;54052;53.542;49.408;2022-11-15T06:22:44;7.70;;;2.22;;
67132;SDS011;54052;53.542;49.408;2022-11-15T06:25:10;21.52;;;2.30;;
67132;SDS011;54052;53.542;49.408;2022-11-15T06:27:36;5.40;;;0.98;;
67132;SDS011;54052;53.542;49.408;2022-11-15T06:30:02;6.82;;;1.65;;
67132;SDS011;54052;53.542;49.408;2022-11-15T06:32:29;4.30;;;1.80;;
67132;SDS011;54052;53.542;49.408;2022-11-15T06:34:55;4.43;;;3.08;;
67132;SDS011;54052;53.542;49.408;2022-11-15T06:37:22;5.28;;;1.23;;
67132;SDS011;54052;53.542;49.408;2022-11-15T06:39:48;5.97;;;0.98;;
67132;SDS011;54052;53.542;49.408;2022-11-15T06:42:14;4.15;;;0.60;;
67132;SDS011;54052;53.542;49.408;2022-11-15T06:44:40;2.33;;;0.32;;
67132;SDS011;54052;53.542;49.408;2022-11-15T06:47:06;2.95;;;0.43;;
67132;SDS011;54052;53.542;49.408;2022-11-15T06:49:32;2.90;;;1.00;;
67132;SDS011;54052;53.542;49.408;2022-11-15T06:51:58;1.55;;;0.75;;
67132;SDS011;54052;53.542;49.408;2022-11-15T06:54:24;4.63;;;0.50;;
67132;SDS011;54052;53.542;49.408;2022-11-15T06:56:50;2.90;;;0.52;;
67132;SDS011;54052;53.542;49.408;2022-11-15T06:59:22;7.93;;;1.25;;
67132;SDS011;54052;53.542;49.408;2022-11-15T07:02:12;4.57;;;1.73;;
67132;SDS011;54052;53.542;49.408;2022-11-15T07:04:39;8.40;;;1.30;;
67132;SDS011;54052;53.542;49.408;2022-11-15T07:07:05;4.85;;;1.25;;
67132;SDS011;54052;53.542;49.408;2022-11-15T07:09:31;8.38;;;3.08;;
67132;SDS011;54052;53.542;49.408;2022-11-15T07:12:05;7.35;;;1.35;;
67132;SDS011;54052;53.542;49.408;2022-11-15T07:14:32;2.88;;;1.58;;
67132;SDS011;54052;53.542;49.408;2022-11-15T07:16:58;1.00;;;0.30;;
67132;SDS011;54052;53.542;49.408;2022-11-15T07:19:24;4.43;;;0.60;;
67132;SDS011;54052;53.542;49.408;2022-11-15T07:21:50;1.15;;;0.30;;
67132;SDS011;54052;53.542;49.408;2022-11-15T07:24:16;2.75;;;0.28;;
67132;SDS011;54052;53.542;49.408;2022-11-15T07:26:42;6.72;;;0.38;;
67132;SDS011;54052;53.542;49.408;2022-11-15T07:29:08;0.20;;;0.10;;
67132;SDS011;54052;53.542;49.408;2022-11-15T07:31:34;1.08;;;0.20;;
67132;SDS011;54052;53.542;49.408;2022-11-15T07:34:00;0.60;;;0.20;;
67132;SDS011;54052;53.542;49.408;2022-11-15T07:36:26;14.60;;;0.43;;
67132;SDS011;54052;53.542;49.408;2022-11-15T07:38:52;0.43;;;0.30;;
67132;SDS011;54052;53.542;49.408;2022-11-15T07:41:28;6.10;;;0.40;;
67132;SDS011;54052;53.542;49.408;2022-11-15T07:43:55;5.40;;;0.28;;
67132;SDS011;54052;53.542;49.408;2022-11-15T07:46:21;5.53;;;0.40;;
67132;SDS011;54052;53.542;49.408;2022-11-15T07:48:47;0.90;;;0.30;;
67132;SDS011;54052;53.542;49.408;2022-11-15T07:51:16;0.93;;;0.20;;
67132;SDS011;54052;53.542;49.408;2022-11-15T07:53:42;5.38;;;0.30;;
67132;SDS011;54052;53.542;49.408;2022-11-15T07:56:09;2.38;;;0.30;;
67132;SDS011;54052;53.542;49.408;2022-11-15T07:58:35;1.02;;;0.30;;
67132;SDS011;54052;53.542;49.408;2022-11-15T08:01:02;1.45;;;0.28;;
67132;SDS011;54052;53.542;49.408;2022-11-15T08:03:29;6.40;;;0.30;;
67132;SDS011;54052;53.542;49.408;2022-11-15T08:05:58;1.90;;;0.30;;
67132;SDS011;54052;53.542;49.408;2022-11-15T08:08:24;1.38;;;0.50;;
67132;SDS011;54052;53.542;49.408;2022-11-15T08:10:51;4.10;;;0.20;;
67132;SDS011;54052;53.542;49.408;2022-11-15T08:13:17;2.92;;;0.65;;
67132;SDS011;54052;53.542;49.408;2022-11-15T08:15:43;4.85;;;1.05;;
67132;SDS011;54052;53.542;49.408;2022-11-15T08:18:13;2.80;;;0.50;;
67132;SDS011;54052;53.542;49.408;2022-11-15T08:20:41;7.95;;;0.57;;
67132;SDS011;54052;53.542;49.408;2022-11-15T08:23:09;6.38;;;0.90;;
67132;SDS011;54052;53.542;49.408;2022-11-15T08:25:36;3.70;;;0.80;;
67132;SDS011;54052;53.542;49.408;2022-11-15T08:28:06;9.13;;;0.90;;
67132;SDS011;54052;53.542;49.408;2022-11-15T08:30:40;7.72;;;0.68;;
67132;SDS011;54052;53.542;49.408;2022-11-15T08:33:11;3.38;;;0.52;;
67132;SDS011;54052;53.542;49.408;2022-11-15T08:35:39;4.28;;;0.50;;
67132;SDS011;54052;53.542;49.408;2022-11-15T08:38:06;24.65;;;0.80;;
67132;SDS011;54052;53.542;49.408;2022-11-15T08:40:32;7.35;;;0.65;;
67132;SDS011;54052;53.542;49.408;2022-11-15T08:42:58;7.28;;;0.70;;
67132;SDS011;54052;53.542;49.408;2022-11-15T08:45:28;3.20;;;0.60;;
67132;SDS011;54052;53.542;49.408;2022-11-15T08:47:55;1.83;;;0.40;;
67132;SDS011;54052;53.542;49.408;2022-11-15T08:50:21;7.25;;;0.73;;
67132;SDS011;54052;53.542;49.408;2022-11-15T08:52:47;2.90;;;0.40;;
67132;SDS011;54052;53.542;49.408;2022-11-15T08:55:14;5.65;;;0.80;;
67132;SDS011;54052;53.542;49.408;2022-11-15T08:57:40;9.77;;;0.90;;
67132;SDS011;54052;53.542;49.408;2022-11-15T09:00:06;43.80;;;1.35;;
67132;SDS011;54052;53.542;49.408;2022-11-15T09:02:32;14.82;;;0.95;;
67132;SDS011;54052;53.542;49.408;2022-11-15T09:04:58;5.03;;;0.63;;
67132;SDS011;54052;53.542;49.408;2022-11-15T09:07:25;4.70;;;0.63;;
67132;SDS011;54052;53.542;49.408;2022-11-15T09:10:00;2.72;;;0.60;;
67132;SDS011;54052;53.542;49.408;2022-11-15T09:12:26;3.08;;;0.50;;
67132;SDS011;54052;53.542;49.408;2022-11-15T09:14:52;16.52;;;1.40;;
67132;SDS011;54052;53.542;49.408;2022-11-15T09:17:21;1.52;;;0.50;;
67132;SDS011;54052;53.542;49.408;2022-11-15T09:19:52;15.30;;;0.70;;
67132;SDS011;54052;53.542;49.408;2022-11-15T09:22:18;2.50;;;0.50;;
67132;SDS011;54052;53.542;49.408;2022-11-15T09:24:45;3.33;;;0.68;;
67132;SDS011;54052;53.542;49.408;2022-11-15T09:27:11;2.47;;;0.43;;
67132;SDS011;54052;53.542;49.408;2022-11-15T09:29:37;1.65;;;0.50;;
67132;SDS011;54052;53.542;49.408;2022-11-15T09:32:04;4.43;;;0.90;;
67132;SDS011;54052;53.542;49.408;2022-11-15T09:34:30;5.97;;;0.90;;
67132;SDS011;54052;53.542;49.408;2022-11-15T09:36:56;2.95;;;1.00;;
67132;SDS011;54052;53.542;49.408;2022-11-15T09:39:22;2.25;;;0.85;;
67132;SDS011;54052;53.542;49.408;2022-11-15T09:41:51;3.55;;;0.70;;
67132;SDS011;54052;53.542;49.408;2022-11-15T09:49:42;2.72;;;0.80;;
67132;SDS011;54052;53.542;49.408;2022-11-15T09:52:08;4.82;;;0.70;;
67132;SDS011;54052;53.542;49.408;2022-11-15T10:05:27;4.15;;;0.80;;
67132;SDS011;54052;53.542;49.408;2022-11-15T10:10:40;1.63;;;0.80;;
67132;SDS011;54052;53.542;49.408;2022-11-15T10:13:18;1.77;;;0.40;;
67132;SDS011;54052;53.542;49.408;2022-11-15T10:15:49;2.90;;;0.63;;
67132;SDS011;54052;53.542;49.408;2022-11-15T10:18:17;30.17;;;2.30;;
67132;SDS011;54052;53.542;49.408;2022-11-15T10:21:02;2.97;;;1.40;;
67132;SDS011;54052;53.542;49.408;2022-11-15T10:23:40;6.35;;;2.45;;
67132;SDS011;54052;53.542;49.408;2022-11-15T10:26:09;5.07;;;1.85;;
67132;SDS011;54052;53.542;49.408;2022-11-15T10:28:38;2.47;;;0.90;;
67132;SDS011;54052;53.542;49.408;2022-11-15T10:31:11;9.15;;;2.17;;
67132;SDS011;54052;53.542;49.408;2022-11-15T10:33:47;1.30;;;0.57;;
67132;SDS011;54052;53.542;49.408;2022-11-15T10:36:18;3.22;;;0.60;;
67132;SDS011;54052;53.542;49.408;2022-11-15T10:38:53;1.92;;;0.60;;
67132;SDS011;54052;53.542;49.408;2022-11-15T10:44:10;0.97;;;0.30;;
67132;SDS011;54052;53.542;49.408;2022-11-15T10:46:45;0.60;;;0.20;;
67132;SDS011;54052;53.542;49.408;2022-11-15T10:49:19;1.73;;;0.40;;
67132;SDS011;54052;53.542;49.408;2022-11-15T10:51:56;3.63;;;0.32;;
67132;SDS011;54052;53.542;49.408;2022-11-15T10:57:08;1.38;;;0.30;;
67132;SDS011;54052;53.542;49.408;2022-11-15T10:59:38;5.57;;;0.43;;
67132;SDS011;54052;53.542;49.408;2022-11-15T11:04:52;2.42;;;0.20;;
67132;SDS011;54052;53.542;49.408;2022-11-15T11:07:23;2.03;;;0.50;;
67132;SDS011;54052;53.542;49.408;2022-11-15T11:10:02;5.78;;;0.38;;
67132;SDS011;54052;53.542;49.408;2022-11-15T11:12:30;0.38;;;0.20;;
67132;SDS011;54052;53.542;49.408;2022-11-15T11:15:12;2.13;;;0.32;;
67132;SDS011;54052;53.542;49.408;2022-11-15T11:25:42;1.65;;;0.32;;
67132;SDS011;54052;53.542;49.408;2022-11-15T11:33:44;2.30;;;0.30;;
67132;SDS011;54052;53.542;49.408;2022-11-15T11:36:25;0.38;;;0.20;;
67132;SDS011;54052;53.542;49.408;2022-11-15T11:47:55;2.85;;;0.50;;
67132;SDS011;54052;53.542;49.408;2022-11-15T11:50:25;2.83;;;0.63;;
67132;SDS011;54052;53.542;49.408;2022-11-15T11:53:11;6.35;;;1.13;;
67132;SDS011;54052;53.542;49.408;2022-11-15T11:55:51;8.00;;;1.02;;
67132;SDS011;54052;53.542;49.408;2022-11-15T11:58:40;4.00;;;0.80;;
67132;SDS011;54052;53.542;49.408;2022-11-15T12:15:02;5.45;;;1.05;;
67132;SDS011;54052;53.542;49.408;2022-11-15T12:17:38;4.63;;;0.95;;
67132;SDS011;54052;53.542;49.408;2022-11-15T12:20:17;2.75;;;0.43;;
67132;SDS011;54052;53.542;49.408;2022-11-15T12:22:56;1.90;;;0.40;;
67132;SDS011;54052;53.542;49.408;2022-11-15T12:25:44;0.90;;;0.40;;
67132;SDS011;54052;53.542;49.408;2022-11-15T12:33:48;5.43;;;0.40;;
67132;SDS011;54052;53.542;49.408;2022-11-15T12:38:54;1.35;;;0.30;;
67132;SDS011;54052;53.542;49.408;2022-11-15T12:41:23;3.17;;;0.82;;
67132;SDS011;54052;53.542;49.408;2022-11-15T12:43:50;0.60;;;0.25;;
67132;SDS011;54052;53.542;49.408;2022-11-15T12:48:56;1.23;;;0.20;;
67132;SDS011;54052;53.542;49.408;2022-11-15T13:13:02;9.75;;;1.45;;
67132;SDS011;54052;53.542;49.408;2022-11-15T13:15:36;5.22;;;1.23;;
67132;SDS011;54052;53.542;49.408;2022-11-15T13:21:17;11.18;;;1.23;;
67132;SDS011;54052;53.542;49.408;2022-11-15T13:24:04;6.60;;;1.45;;
67132;SDS011;54052;53.542;49.408;2022-11-15T13:26:30;3.53;;;1.10;;
67132;SDS011;54052;53.542;49.408;2022-11-15T13:28:56;12.23;;;1.05;;
67132;SDS011;54052;53.542;49.408;2022-11-15T13:33:55;4.80;;;1.00;;
67132;SDS011;54052;53.542;49.408;2022-11-15T13:36:28;6.88;;;1.35;;
67132;SDS011;54052;53.542;49.408;2022-11-15T13:38:59;7.15;;;1.30;;
67132;SDS011;54052;53.542;49.408;2022-11-15T13:41:49;6.53;;;2.10;;
67132;SDS011;54052;53.542;49.408;2022-11-15T13:44:23;6.47;;;1.42;;
67132;SDS011;54052;53.542;49.408;2022-11-15T13:47:01;6.97;;;1.90;;
67132;SDS011;54052;53.542;49.408;2022-11-15T13:49:33;10.27;;;1.63;;
67132;SDS011;54052;53.542;49.408;2022-11-15T13:52:00;9.75;;;1.10;;
67132;SDS011;54052;53.542;49.408;2022-11-15T13:57:03;18.30;;;2.05;;
67132;SDS011;54052;53.542;49.408;2022-11-15T13:59:46;14.18;;;1.52;;
67132;SDS011;54052;53.542;49.408;2022-11-15T14:02:21;5.90;;;1.20;;
67132;SDS011;54052;53.542;49.408;2022-11-15T14:04:53;8.02;;;1.25;;
67132;SDS011;54052;53.542;49.408;2022-11-15T14:07:23;8.07;;;1.08;;
67132;SDS011;54052;53.542;49.408;2022-11-15T14:09:51;20.65;;;1.23;;
67132;SDS011;54052;53.542;49.408;2022-11-15T14:12:25;8.82;;;1.45;;
67132;SDS011;54052;53.542;49.408;2022-11-15T14:14:57;7.00;;;1.00;;
67132;SDS011;54052;53.542;49.408;2022-11-15T14:19:59;12.13;;;1.00;;
67132;SDS011;54052;53.542;49.408;2022-11-15T14:22:26;1.92;;;0.85;;
67132;SDS011;54052;53.542;49.408;2022-11-15T14:27:38;4.15;;;1.10;;
67132;SDS011;54052;53.542;49.408;2022-11-15T14:30:11;6.32;;;1.13;;
67132;SDS011;54052;53.542;49.408;2022-11-15T14:32:49;8.07;;;1.40;;
67132;SDS011;54052;53.542;49.408;2022-11-15T14:35:17;3.10;;;1.10;;
67132;SDS011;54052;53.542;49.408;2022-11-15T14:37:45;8.07;;;1.75;;
67132;SDS011;54052;53.542;49.408;2022-11-15T14:40:16;11.40;;;2.03;;
67132;SDS011;54052;53.542;49.408;2022-11-15T14:42:47;8.18;;;1.92;;
67132;SDS011;54052;53.542;49.408;2022-11-15T14:45:19;18.42;;;1.75;;
67132;SDS011;54052;53.542;49.408;2022-11-15T14:47:46;6.80;;;1.80;;
67132;SDS011;54052;53.542;49.408;2022-11-15T14:50:17;5.47;;;2.00;;
67132;SDS011;54052;53.542;49.408;2022-11-15T14:52:57;13.63;;;2.38;;
67132;SDS011;54052;53.542;49.408;2022-11-15T14:55:24;9.48;;;2.28;;
67132;SDS011;54052;53.542;49.408;2022-11-15T14:57:55;7.15;;;3.08;;
67132;SDS011;54052;53.542;49.408;2022-11-15T15:00:21;7.57;;;2.75;;
67132;SDS011;54052;53.542;49.408;2022-11-15T15:02:48;7.28;;;2.10;;
67132;SDS011;54052;53.542;49.408;2022-11-15T15:05:52;8.15;;;2.05;;
67132;SDS011;54052;53.542;49.408;2022-11-15T15:08:19;4.97;;;1.40;;
67132;SDS011;54052;53.542;49.408;2022-11-15T15:10:45;4.35;;;1.60;;
67132;SDS011;54052;53.542;49.408;2022-11-15T15:15:43;15.98;;;1.50;;
67132;SDS011;54052;53.542;49.408;2022-11-15T15:18:09;2.50;;;1.17;;
67132;SDS011;54052;53.542;49.408;2022-11-15T15:20:37;6.63;;;1.00;;
67132;SDS011;54052;53.542;49.408;2022-11-15T15:23:05;4.50;;;1.15;;
67132;SDS011;54052;53.542;49.408;2022-11-15T15:25:39;2.97;;;0.73;;
67132;SDS011;54052;53.542;49.408;2022-11-15T15:28:07;3.50;;;0.90;;
67132;SDS011;54052;53.542;49.408;2022-11-15T15:30:33;3.05;;;0.82;;
67132;SDS011;54052;53.542;49.408;2022-11-15T15:32:59;6.70;;;1.10;;
67132;SDS011;54052;53.542;49.408;2022-11-15T15:35:27;5.68;;;1.20;;
67132;SDS011;54052;53.542;49.408;2022-11-15T15:37:56;4.03;;;1.02;;
67132;SDS011;54052;53.542;49.408;2022-11-15T15:40:22;7.88;;;1.00;;
67132;SDS011;54052;53.542;49.408;2022-11-15T15:42:49;7.20;;;0.60;;
67132;SDS011;54052;53.542;49.408;2022-11-15T15:45:16;14.07;;;1.20;;
67132;SDS011;54052;53.542;49.408;2022-11-15T15:47:44;3.20;;;0.70;;
67132;SDS011;54052;53.542;49.408;2022-11-15T15:50:21;4.30;;;0.70;;
67132;SDS011;54052;53.542;49.408;2022-11-15T15:52:55;6.53;;;0.85;;
67132;SDS011;54052;53.542;49.408;2022-11-15T15:55:23;2.35;;;0.82;;
67132;SDS011;54052;53.542;49.408;2022-11-15T15:57:50;5.05;;;0.73;;
67132;SDS011;54052;53.542;49.408;2022-11-15T16:00:17;2.80;;;0.90;;
67132;SDS011;54052;53.542;49.408;2022-11-15T16:02:44;4.68;;;0.90;;
67132;SDS011;54052;53.542;49.408;2022-11-15T16:05:11;19.65;;;0.93;;
67132;SDS011;54052;53.542;49.408;2022-11-15T16:07:38;5.32;;;1.10;;
67132;SDS011;54052;53.542;49.408;2022-11-15T16:12:52;5.13;;;0.80;;
67132;SDS011;54052;53.542;49.408;2022-11-15T16:15:19;7.60;;;0.50;;
67132;SDS011;54052;53.542;49.408;2022-11-15T16:17:50;5.57;;;0.77;;
67132;SDS011;54052;53.542;49.408;2022-11-15T16:23:01;2.30;;;0.90;;
67132;SDS011;54052;53.542;49.408;2022-11-15T16:25:34;7.32;;;0.90;;
67132;SDS011;54052;53.542;49.408;2022-11-15T16:28:19;3.53;;;0.80;;
67132;SDS011;54052;53.542;49.408;2022-11-15T16:33:31;2.03;;;0.70;;
67132;SDS011;54052;53.542;49.408;2022-11-15T16:35:57;2.33;;;0.63;;
67132;SDS011;54052;53.542;49.408;2022-11-15T16:38:23;8.23;;;0.80;;
67132;SDS011;54052;53.542;49.408;2022-11-15T16:40:49;2.53;;;0.60;;
67132;SDS011;54052;53.542;49.408;2022-11-15T16:43:15;2.90;;;0.70;;
67132;SDS011;54052;53.542;49.408;2022-11-15T16:45:42;4.97;;;0.57;;
67132;SDS011;54052;53.542;49.408;2022-11-15T16:48:15;5.35;;;0.60;;
67132;SDS011;54052;53.542;49.408;2022-11-15T16:50:56;2.42;;;0.52;;
67132;SDS011;54052;53.542;49.408;2022-11-15T16:53:23;4.20;;;0.70;;
67132;SDS011;54052;53.542;49.408;2022-11-15T16:55:53;4.50;;;0.80;;
67132;SDS011;54052;53.542;49.408;2022-11-15T16:58:20;5.18;;;0.90;;
67132;SDS011;54052;53.542;49.408;2022-11-15T17:00:49;4.18;;;0.90;;
67132;SDS011;54052;53.542;49.408;2022-11-15T17:03:41;2.17;;;0.60;;
67132;SDS011;54052;53.542;49.408;2022-11-15T17:06:07;3.28;;;0.80;;
67132;SDS011;54052;53.542;49.408;2022-11-15T17:08:34;2.90;;;0.98;;
67132;SDS011;54052;53.542;49.408;2022-11-15T17:11:04;0.73;;;0.50;;
67132;SDS011;54052;53.542;49.408;2022-11-15T17:13:33;1.67;;;0.52;;
67132;SDS011;54052;53.542;49.408;2022-11-15T17:16:03;2.47;;;0.50;;
67132;SDS011;54052;53.542;49.408;2022-11-15T17:18:38;1.83;;;0.47;;
67132;SDS011;54052;53.542;49.408;2022-11-15T17:21:15;1.52;;;0.50;;